Time;durP1;ratioP1;P1;durP2;ratioP2;P2;SDS_P1;SDS_P2;PMS_P1;PMS_P2;Temp;Humidity;BMP_temperature;BMP_pressure;BME280_temperature;BME280_humidity;BME280_pressure;Samples;Min_cycle;Max_cycle;Signal;HPM_P1;HPM_P2
2021/12/16 00:01:44;;;;;;;;;;;;;;;;;;5032557;28;1406;-80
2021/12/16 00:08:35;;;;;;;;;;;;;;;;;;5022105;28;1643;-79
2021/12/16 00:19:24;;;;;;;;;;;;;;;;;;5063025;28;1918;-79
2021/12/16 00:33:19;;;;;;;;;;;;;;;;;;5016577;28;1611;-81
2021/12/16 00:35:50;;;;;;;;;;;;;;;;;;5046878;28;1135;-82
2021/12/16 00:38:16;;;;;;;;;;;;;;;;;;5034871;28;1732;-81
2021/12/16 00:40:42;;;;;;;;;;;;;;;;;;5025040;28;1642;-81
2021/12/16 00:43:20;;;;;;;;;;;;;;;;;;5023029;28;1404;-81
2021/12/16 00:54:10;;;;;;;;;;;;;;;;;;5018352;28;1735;-81
2021/12/16 00:56:36;;;;;;;;;;;;;;;;;;5028768;28;1634;-81
2021/12/16 00:59:04;;;;;;;;;;;;;;;;;;5030377;28;1515;-81
2021/12/16 01:01:44;;;;;;;;;;;;;;;;;;5030640;28;1317;-81
2021/12/16 01:07:21;;;;;;;;;;;;;;;;;;5024426;28;1620;-81
2021/12/16 01:50:11;;;;;;;;;;;;;;;;;;5025188;28;1531;-81
2021/12/16 01:53:00;;;;;;;;;;;;;;;;;;5027977;28;1910;-81
2021/12/16 01:55:27;;;;;;;;;;;;;;;;;;5011537;28;1442;-81
2021/12/16 01:57:57;;;;;;;;;;;;;;;;;;5013174;28;1711;-81
2021/12/16 02:00:30;;;;;;;;;;;;;;;;;;5011903;28;1487;-81
2021/12/16 02:03:01;;;;;;;;;;;;;;;;;;5011773;28;1595;-81
2021/12/16 02:08:28;;;;;;;;;;;;;;;;;;5014465;28;1580;-81
2021/12/16 02:11:31;;;;;;;;;;;;;;;;;;5015136;28;1961;-81
2021/12/16 02:37:33;;;;;;;;;;;;;;;;;;5032021;28;1696;-81
2021/12/16 02:40:01;;;;;;;;;;;;;;;;;;5017059;28;1572;-81
2021/12/16 02:42:41;;;;;;;;;;;;;;;;;;5031582;28;1568;-81
2021/12/16 02:50:36;;;;;;;;;;;;;;;;;;5013813;28;1977;-81
2021/12/16 02:53:03;;;;;;;;;;;;;;;;;;5014166;28;1556;-81
2021/12/16 02:55:30;;;;;;;;;;;;;;;;;;5015416;28;1576;-81
2021/12/16 02:58:01;;;;;;;;;;;;;;;;;;5025105;28;1595;-81
2021/12/16 03:00:27;;;;;;;;;;;;;;;;;;5030788;28;1539;-81
2021/12/16 03:02:55;;;;;;;;;;;;;;;;;;5032535;28;1698;-81
2021/12/16 03:05:21;;;;;;;;;;;;;;;;;;5065397;28;961;-81
2021/12/16 03:07:47;;;;;;;;;;;;;;;;;;5054990;28;1600;-81
2021/12/16 03:18:44;;;;;;;;;;;;;;;;;;5018986;28;1628;-81
2021/12/16 03:21:05;;;;;;;;;;;;;;;;;;5013160;28;1031;-81
2021/12/16 03:23:54;;;;;;;;;;;;;;;;;;5042604;28;1572;-82
2021/12/16 03:29:28;;;;;;;;;;;;;;;;;;5030485;28;1622;-81
2021/12/16 03:39:44;;;;;;;;;;;;;;;;;;5014853;28;1636;-81
2021/12/16 03:42:09;;;;;;;;;;;;;;;;;;5013631;28;1488;-81
2021/12/16 03:44:52;;;;;;;;;;;;;;;;;;5012971;28;1651;-81
2021/12/16 03:47:18;;;;;;;;;;;;;;;;;;5018282;28;1642;-81
2021/12/16 03:49:43;;;;;;;;;;;;;;;;;;5015093;28;1619;-81
2021/12/16 03:52:09;;;;;;;;;;;;;;;;;;5031357;28;1959;-81
2021/12/16 03:54:38;;;;;;;;;;;;;;;;;;5023852;28;1661;-81
2021/12/16 03:57:05;;;;;;;;;;;;;;;;;;5029782;28;1691;-81
2021/12/16 03:59:31;;;;;;;;;;;;;;;;;;5029181;28;1571;-81
2021/12/16 04:01:57;;;;;;;;;;;;;;;;;;5050801;28;1636;-81
2021/12/16 04:04:25;;;;;;;;;;;;;;;;;;5019031;28;1564;-81
2021/12/16 04:06:53;;;;;;;;;;;;;;;;;;5028486;28;1610;-81
2021/12/16 04:09:18;;;;;;;;;;;;;;;;;;5018235;28;1639;-81
2021/12/16 04:11:51;;;;;;;;;;;;;;;;;;5021364;28;1906;-81
2021/12/16 04:14:16;;;;;;;;;;;;;;;;;;5012903;28;886;-81
2021/12/16 04:16:46;;;;;;;;;;;;;;;;;;5017809;28;1619;-81
2021/12/16 04:19:12;;;;;;;;;;;;;;;;;;5016381;28;1730;-81
2021/12/16 04:21:42;;;;;;;;;;;;;;;;;;5029306;28;1694;-81
2021/12/16 04:24:10;;;;;;;;;;;;;;;;;;5015621;28;2009;-81
2021/12/16 04:26:36;;;;;;;;;;;;;;;;;;5012414;28;899;-81
2021/12/16 04:29:04;;;;;;;;;;;;;;;;;;5060309;28;1647;-81
2021/12/16 04:31:29;;;;;;;;;;;;;;;;;;5029797;28;1910;-81
2021/12/16 04:33:54;;;;;;;;;;;;;;;;;;5012822;28;1587;-81
2021/12/16 04:36:19;;;;;;;;;;;;;;;;;;5026253;28;1592;-81
2021/12/16 04:38:45;;;;;;;;;;;;;;;;;;5012888;28;1514;-81
2021/12/16 04:41:12;;;;;;;;;;;;;;;;;;5029406;28;2545;-81
2021/12/16 04:43:40;;;;;;;;;;;;;;;;;;5028880;28;1676;-81
2021/12/16 04:46:13;;;;;;;;;;;;;;;;;;5061219;28;1578;-81
2021/12/16 04:48:39;;;;;;;;;;;;;;;;;;5024729;28;1627;-81
2021/12/16 04:51:04;;;;;;;;;;;;;;;;;;5029883;28;1934;-81
2021/12/16 04:53:32;;;;;;;;;;;;;;;;;;5031862;28;1185;-81
2021/12/16 04:55:57;;;;;;;;;;;;;;;;;;5030451;28;1652;-81
2021/12/16 04:58:23;;;;;;;;;;;;;;;;;;5028809;28;1736;-81
2021/12/16 05:00:48;;;;;;;;;;;;;;;;;;5029852;28;1561;-81
2021/12/16 05:03:13;;;;;;;;;;;;;;;;;;5024899;28;1679;-81
2021/12/16 05:05:39;;;;;;;;;;;;;;;;;;5012056;28;1441;-82
2021/12/16 05:08:04;;;;;;;;;;;;;;;;;;5012244;28;1597;-82
2021/12/16 05:10:29;;;;;;;;;;;;;;;;;;5017727;28;1907;-82
2021/12/16 05:12:58;;;;;;;;;;;;;;;;;;5027118;28;1495;-82
2021/12/16 05:15:28;;;;;;;;;;;;;;;;;;5028274;28;1580;-82
2021/12/16 05:17:55;;;;;;;;;;;;;;;;;;5025522;28;1591;-82
2021/12/16 05:20:22;;;;;;;;;;;;;;;;;;5026351;28;1429;-82
2021/12/16 05:26:16;;;;;;;;;;;;;;;;;;5026416;28;1639;-82
2021/12/16 05:28:23;;;;;;;;;;;;;;;;;;5018266;28;1625;-82
2021/12/16 05:30:49;;;;;;;;;;;;;;;;;;5029775;28;1909;-82
2021/12/16 05:33:14;;;;;;;;;;;;;;;;;;5015412;28;1664;-82
2021/12/16 05:35:39;;;;;;;;;;;;;;;;;;5033629;28;1608;-82
2021/12/16 05:38:05;;;;;;;;;;;;;;;;;;5017053;28;1491;-82
2021/12/16 05:40:33;;;;;;;;;;;;;;;;;;5028483;28;1830;-82
2021/12/16 05:43:00;;;;;;;;;;;;;;;;;;5027108;28;1459;-82
2021/12/16 05:45:26;;;;;;;;;;;;;;;;;;5030656;28;1522;-81
2021/12/16 05:47:53;;;;;;;;;;;;;;;;;;5020649;28;1706;-82
2021/12/16 05:50:19;;;;;;;;;;;;;;;;;;5032228;28;1595;-82
2021/12/16 05:52:47;;;;;;;;;;;;;;;;;;5021768;28;1902;-82
2021/12/16 05:55:13;;;;;;;;;;;;;;;;;;5031701;28;1591;-82
2021/12/16 05:57:41;;;;;;;;;;;;;;;;;;5029136;28;1475;-82
2021/12/16 06:00:08;;;;;;;;;;;;;;;;;;5033882;28;1596;-82
2021/12/16 06:02:33;;;;;;;;;;;;;;;;;;5032673;28;1724;-82
2021/12/16 06:04:58;;;;;;;;;;;;;;;;;;5033807;28;1551;-83
2021/12/16 06:07:25;;;;;;;;;;;;;;;;;;5031548;28;1535;-82
2021/12/16 06:09:50;;;;;;;;;;;;;;;;;;5031298;28;1523;-82
2021/12/16 06:12:18;;;;;;;;;;;;;;;;;;5032684;28;1969;-82
2021/12/16 06:28:25;;;;;;;;;;;;;;;;;;5029480;28;1666;-82
2021/12/16 06:30:50;;;;;;;;;;;;;;;;;;5027869;28;1906;-82
2021/12/16 06:33:16;;;;;;;;;;;;;;;;;;5031386;28;1656;-82
2021/12/16 06:35:42;;;;;;;;;;;;;;;;;;5016907;28;1544;-78
2021/12/16 06:38:07;;;;;;;;;;;;;;;;;;5030585;28;1672;-82
2021/12/16 06:40:32;;;;;;;;;;;;;;;;;;5059895;28;1622;-81
2021/12/16 06:42:59;;;;;;;;;;;;;;;;;;5016791;28;1638;-80
2021/12/16 06:45:29;;;;;;;;;;;;;;;;;;5017108;28;1661;-78
2021/12/16 06:48:00;;;;;;;;;;;;;;;;;;5023845;28;1689;-81
2021/12/16 06:50:40;;;;;;;;;;;;;;;;;;5056940;28;1618;-78
2021/12/16 06:53:06;;;;;;;;;;;;;;;;;;5031321;28;1568;-78
2021/12/16 06:58:41;;;;;;;;;;;;;;;;;;5013823;28;1665;-78
2021/12/16 07:01:15;;;;;;;;;;;;;;;;;;5035613;28;1305;-78
2021/12/16 07:03:47;;;;;;;;;;;;;;;;;;5031530;28;1596;-78
2021/12/16 07:06:23;;;;;;;;;;;;;;;;;;5028463;28;980;-78
2021/12/16 07:08:49;;;;;;;;;;;;;;;;;;5053193;28;1618;-78
2021/12/16 07:11:15;;;;;;;;;;;;;;;;;;5015484;28;1967;-78
2021/12/16 07:13:42;;;;;;;;;;;;;;;;;;5015835;28;1635;-78
2021/12/16 07:16:12;;;;;;;;;;;;;;;;;;5016097;28;1446;-78
2021/12/16 07:18:39;;;;;;;;;;;;;;;;;;5015941;28;1595;-78
2021/12/16 07:21:05;;;;;;;;;;;;;;;;;;5034927;28;930;-78
2021/12/16 07:23:30;;;;;;;;;;;;;;;;;;5034970;28;1283;-78
2021/12/16 07:25:58;;;;;;;;;;;;;;;;;;5034295;28;1593;-78
2021/12/16 07:28:23;;;;;;;;;;;;;;;;;;5025833;28;1482;-78
2021/12/16 07:30:48;;;;;;;;;;;;;;;;;;5015610;28;1910;-78
2021/12/16 07:33:16;;;;;;;;;;;;;;;;;;5015805;28;1259;-78
2021/12/16 07:35:41;;;;;;;;;;;;;;;;;;5048275;28;1435;-78
2021/12/16 07:38:09;;;;;;;;;;;;;;;;;;5077382;28;1544;-78
2021/12/16 07:40:38;;;;;;;;;;;;;;;;;;5019903;28;1632;-78
2021/12/16 07:45:29;;;;;;;;;;;;;;;;;;5023768;28;1643;-78
2021/12/16 07:47:54;;;;;;;;;;;;;;;;;;5048347;28;1363;-78
2021/12/16 07:50:22;;;;;;;;;;;;;;;;;;5019790;28;1591;-78
2021/12/16 07:52:47;;;;;;;;;;;;;;;;;;5065156;28;1951;-78
2021/12/16 07:55:12;;;;;;;;;;;;;;;;;;5034834;28;1304;-78
2021/12/16 07:57:41;;;;;;;;;;;;;;;;;;5029368;28;1601;-78
2021/12/16 08:00:08;;;;;;;;;;;;;;;;;;5064578;28;1589;-78
2021/12/16 08:02:34;;;;;;;;;;;;;;;;;;5057365;28;1682;-78
2021/12/16 08:05:01;;;;;;;;;;;;;;;;;;5014698;28;1591;-78
2021/12/16 08:07:27;;;;;;;;;;;;;;;;;;5026557;28;1631;-78
2021/12/16 08:09:52;;;;;;;;;;;;;;;;;;5045901;28;1590;-78
2021/12/16 08:12:17;;;;;;;;;;;;;;;;;;5028101;28;1967;-78
2021/12/16 08:14:42;;;;;;;;;;;;;;;;;;5023813;28;3059;-78
2021/12/16 08:17:08;;;;;;;;;;;;;;;;;;5021695;28;1634;-78
2021/12/16 08:19:35;;;;;;;;;;;;;;;;;;5031519;28;1780;-78
2021/12/16 08:22:01;;;;;;;;;;;;;;;;;;5031656;28;1707;-78
2021/12/16 08:24:29;;;;;;;;;;;;;;;;;;5033284;28;1636;-78
2021/12/16 08:26:54;;;;;;;;;;;;;;;;;;5031037;28;1572;-78
2021/12/16 08:29:19;;;;;;;;;;;;;;;;;;5027559;28;1630;-78
2021/12/16 08:31:45;;;;;;;;;;;;;;;;;;5030390;28;1902;-78
2021/12/16 08:34:11;;;;;;;;;;;;;;;;;;5016843;28;1744;-78
2021/12/16 08:36:36;;;;;;;;;;;;;;;;;;5032738;28;1639;-78
2021/12/16 08:39:04;;;;;;;;;;;;;;;;;;5019133;28;1656;-78
2021/12/16 08:41:31;;;;;;;;;;;;;;;;;;5024317;28;1630;-78
2021/12/16 08:43:56;;;;;;;;;;;;;;;;;;5014345;28;1613;-78
2021/12/16 08:46:22;;;;;;;;;;;;;;;;;;5033925;28;831;-78
2021/12/16 08:48:49;;;;;;;;;;;;;;;;;;5031065;28;1461;-78
2021/12/16 08:51:16;;;;;;;;;;;;;;;;;;5016809;28;1910;-78
2021/12/16 08:53:41;;;;;;;;;;;;;;;;;;5012543;28;1274;-78
2021/12/16 08:56:10;;;;;;;;;;;;;;;;;;5025450;28;1591;-78
2021/12/16 08:58:37;;;;;;;;;;;;;;;;;;5032759;28;1571;-78
2021/12/16 09:01:10;;;;;;;;;;;;;;;;;;5033444;28;847;-78
2021/12/16 09:03:35;;;;;;;;;;;;;;;;;;5032011;28;1568;-78
2021/12/16 09:06:01;;;;;;;;;;;;;;;;;;5033916;28;830;-78
2021/12/16 09:08:27;;;;;;;;;;;;;;;;;;5029761;28;1580;-78
2021/12/16 09:10:52;;;;;;;;;;;;;;;;;;5012661;28;1894;-78
2021/12/16 09:13:17;;;;;;;;;;;;;;;;;;5028873;28;1189;-78
2021/12/16 09:15:45;;;;;;;;;;;;;;;;;;5013714;28;1643;-78
2021/12/16 09:18:13;;;;;;;;;;;;;;;;;;5013783;28;1462;-78
2021/12/16 09:20:38;;;;;;;;;;;;;;;;;;5020783;28;1664;-78
2021/12/16 09:23:06;;;;;;;;;;;;;;;;;;5033015;28;1274;-78
2021/12/16 09:25:34;;;;;;;;;;;;;;;;;;5017005;28;1580;-78
2021/12/16 09:27:59;;;;;;;;;;;;;;;;;;5013892;28;1612;-78
2021/12/16 09:30:24;;;;;;;;;;;;;;;;;;5013359;28;1704;-78
2021/12/16 09:32:57;;;;;;;;;;;;;;;;;;5013103;28;1902;-78
2021/12/16 09:35:23;;;;;;;;;;;;;;;;;;5028076;28;1584;-78
2021/12/16 09:37:48;;;;;;;;;;;;;;;;;;5029956;28;1495;-78
2021/12/16 09:40:18;;;;;;;;;;;;;;;;;;5013579;28;780;-78
2021/12/16 09:42:43;;;;;;;;;;;;;;;;;;5026219;28;1627;-78
2021/12/16 09:45:11;;;;;;;;;;;;;;;;;;5028514;28;1624;-78
2021/12/16 09:47:37;;;;;;;;;;;;;;;;;;5018614;28;1361;-78
2021/12/16 09:50:06;;;;;;;;;;;;;;;;;;5013162;28;1667;-78
2021/12/16 09:52:31;;;;;;;;;;;;;;;;;;5013298;28;1956;-78
2021/12/16 09:54:57;;;;;;;;;;;;;;;;;;5023775;28;1648;-78
2021/12/16 09:57:22;;;;;;;;;;;;;;;;;;5017222;28;1635;-78
2021/12/16 09:59:47;;;;;;;;;;;;;;;;;;5012898;28;1627;-78
2021/12/16 10:02:14;;;;;;;;;;;;;;;;;;5012654;28;1611;-78
2021/12/16 10:04:40;;;;;;;;;;;;;;;;;;5020948;28;1573;-78
2021/12/16 10:07:07;;;;;;;;;;;;;;;;;;5020517;28;1532;-78
2021/12/16 10:09:35;;;;;;;;;;;;;;;;;;5028257;28;1646;-78
2021/12/16 10:12:06;;;;;;;;;;;;;;;;;;5012908;28;1957;-78
2021/12/16 10:14:44;;;;;;;;;;;;;;;;;;5022951;28;1638;-78
2021/12/16 10:19:46;;;;;;;;;;;;;;;;;;5015000;28;1603;-78
2021/12/16 10:22:17;;;;;;;;;;;;;;;;;;5043623;28;1624;-78
2021/12/16 10:24:42;;;;;;;;;;;;;;;;;;5019942;28;1661;-78
2021/12/16 10:27:12;;;;;;;;;;;;;;;;;;5026022;28;1608;-78
2021/12/16 10:29:39;;;;;;;;;;;;;;;;;;5027832;28;1638;-77
2021/12/16 10:32:04;;;;;;;;;;;;;;;;;;5013044;28;1906;-78
2021/12/16 10:34:30;;;;;;;;;;;;;;;;;;5019146;28;1605;-78
2021/12/16 10:36:56;;;;;;;;;;;;;;;;;;5034973;28;1568;-78
2021/12/16 10:39:22;;;;;;;;;;;;;;;;;;5023273;28;1643;-77
2021/12/16 10:41:52;;;;;;;;;;;;;;;;;;5016749;28;1528;-78
2021/12/16 10:44:23;;;;;;;;;;;;;;;;;;5032083;28;1688;-78
2021/12/16 10:46:50;;;;;;;;;;;;;;;;;;5022868;28;1640;-78
2021/12/16 10:49:20;;;;;;;;;;;;;;;;;;5024832;28;1639;-78
2021/12/16 10:51:49;;;;;;;;;;;;;;;;;;5016266;28;1902;-78
2021/12/16 10:54:14;;;;;;;;;;;;;;;;;;5016212;28;1642;-78
2021/12/16 10:56:52;;;;;;;;;;;;;;;;;;5047259;28;2335;-78
2021/12/16 10:59:24;;;;;;;;;;;;;;;;;;5033326;28;1705;-78
2021/12/16 11:01:53;;;;;;;;;;;;;;;;;;5030711;28;1579;-78
2021/12/16 11:04:30;;;;;;;;;;;;;;;;;;5035148;28;882;-78
2021/12/16 11:06:58;;;;;;;;;;;;;;;;;;5023330;28;1625;-78
2021/12/16 11:09:27;;;;;;;;;;;;;;;;;;5019964;28;1533;-78
2021/12/16 11:12:04;;;;;;;;;;;;;;;;;;5026510;28;1906;-78
2021/12/16 11:14:29;;;;;;;;;;;;;;;;;;5015750;28;1219;-78
2021/12/16 11:16:56;;;;;;;;;;;;;;;;;;5019212;28;1600;-78
2021/12/16 11:19:42;;;;;;;;;;;;;;;;;;5015955;28;1472;-78
2021/12/16 11:22:07;;;;;;;;;;;;;;;;;;5015343;28;1169;-78
2021/12/16 11:24:32;;;;;;;;;;;;;;;;;;5029060;28;1918;-78
2021/12/16 11:26:58;;;;;;;;;;;;;;;;;;5015511;28;1069;-78
2021/12/16 11:29:29;;;;;;;;;;;;;;;;;;5016266;28;1647;-78
2021/12/16 11:31:56;;;;;;;;;;;;;;;;;;5030360;28;1977;-78
2021/12/16 11:34:22;;;;;;;;;;;;;;;;;;5030141;28;1617;-78
2021/12/16 11:36:49;;;;;;;;;;;;;;;;;;5055077;28;934;-78
2021/12/16 11:39:19;;;;;;;;;;;;;;;;;;5046082;28;1572;-78
2021/12/16 11:41:44;;;;;;;;;;;;;;;;;;5033734;28;1849;-77
2021/12/16 11:44:28;;;;;;;;;;;;;;;;;;5035032;28;890;-78
2021/12/16 11:46:55;;;;;;;;;;;;;;;;;;5016677;28;1619;-78
2021/12/16 11:49:25;;;;;;;;;;;;;;;;;;5024166;28;1616;-78
2021/12/16 11:51:51;;;;;;;;;;;;;;;;;;5014620;28;1906;-78
2021/12/16 11:54:18;;;;;;;;;;;;;;;;;;5016088;28;1560;-78
2021/12/16 11:56:48;;;;;;;;;;;;;;;;;;5014940;28;843;-78
2021/12/16 11:59:20;;;;;;;;;;;;;;;;;;5031944;28;1802;-78
2021/12/16 12:01:45;;;;;;;;;;;;;;;;;;5014601;28;1319;-78
2021/12/16 12:04:13;;;;;;;;;;;;;;;;;;5018644;28;1605;-76
2021/12/16 12:06:41;;;;;;;;;;;;;;;;;;5018612;28;1641;-76
2021/12/16 12:09:07;;;;;;;;;;;;;;;;;;5014717;28;926;-77
2021/12/16 12:11:33;;;;;;;;;;;;;;;;;;5013251;28;1898;-76
2021/12/16 12:14:06;;;;;;;;;;;;;;;;;;5024503;28;1631;-76
2021/12/16 12:16:34;;;;;;;;;;;;;;;;;;5064989;28;1656;-76
2021/12/16 12:19:02;;;;;;;;;;;;;;;;;;5032970;28;1653;-76
2021/12/16 12:21:28;;;;;;;;;;;;;;;;;;5017025;28;1595;-76
2021/12/16 12:23:57;;;;;;;;;;;;;;;;;;5031514;28;1987;-76
2021/12/16 12:26:23;;;;;;;;;;;;;;;;;;5031928;28;1602;-76
2021/12/16 12:28:50;;;;;;;;;;;;;;;;;;5031528;28;1623;-76
2021/12/16 12:31:18;;;;;;;;;;;;;;;;;;5031733;28;1972;-76
2021/12/16 12:33:47;;;;;;;;;;;;;;;;;;5015872;28;1650;-76
2021/12/16 12:36:12;;;;;;;;;;;;;;;;;;5040759;28;1642;-76
2021/12/16 12:38:38;;;;;;;;;;;;;;;;;;5021557;28;1589;-76
2021/12/16 12:41:04;;;;;;;;;;;;;;;;;;5031019;28;1576;-76
2021/12/16 12:43:29;;;;;;;;;;;;;;;;;;5031139;28;1603;-76
2021/12/16 12:45:55;;;;;;;;;;;;;;;;;;5030627;28;1564;-76
2021/12/16 12:48:20;;;;;;;;;;;;;;;;;;5013961;28;1576;-76
2021/12/16 12:50:47;;;;;;;;;;;;;;;;;;5019991;28;1905;-76
2021/12/16 12:53:17;;;;;;;;;;;;;;;;;;5040347;28;1657;-76
2021/12/16 12:55:43;;;;;;;;;;;;;;;;;;5017206;28;1638;-76
2021/12/16 12:58:10;;;;;;;;;;;;;;;;;;5014920;28;1652;-76
2021/12/16 13:00:37;;;;;;;;;;;;;;;;;;5030648;28;1626;-76
2021/12/16 13:03:06;;;;;;;;;;;;;;;;;;5023099;28;1654;-76
2021/12/16 13:05:31;;;;;;;;;;;;;;;;;;5013959;28;1647;-76
2021/12/16 13:07:58;;;;;;;;;;;;;;;;;;5028645;28;1588;-76
2021/12/16 13:10:34;;;;;;;;;;;;;;;;;;5013785;28;1572;-76
2021/12/16 13:13:45;;;;;;;;;;;;;;;;;;5016875;28;1906;-76
2021/12/16 13:27:20;;;;;;;;;;;;;;;;;;5032363;28;1604;-76
2021/12/16 13:30:17;;;;;;;;;;;;;;;;;;5058877;28;1594;-76
2021/12/16 13:32:48;;;;;;;;;;;;;;;;;;5013796;28;1906;-76
2021/12/16 13:37:45;;;;;;;;;;;;;;;;;;5026304;28;1576;-76
2021/12/16 13:40:13;;;;;;;;;;;;;;;;;;5013406;28;1462;-76
2021/12/16 13:42:54;;;;;;;;;;;;;;;;;;5030500;28;1539;-76
2021/12/16 13:45:24;;;;;;;;;;;;;;;;;;5031770;28;835;-76
2021/12/16 14:02:04;;;;;;;;;;;;;;;;;;5025094;28;1744;-76
2021/12/16 14:10:03;;;;;;;;;;;;;;;;;;5035289;28;1363;-76
2021/12/16 14:14:06;;;;;;;;;;;;;;;;;;5034174;28;1967;-76
2021/12/16 14:15:22;;;;;;;;;;;;;;;;;;5032613;28;1474;-76
2021/12/16 14:23:09;;;;;;;;;;;;;;;;;;5032406;28;1630;-76
2021/12/16 14:26:06;;;;;;;;;;;;;;;;;;5015347;28;875;-76
2021/12/16 14:42:23;;;;;;;;;;;;;;;;;;5028341;28;1650;-76
2021/12/16 14:49:52;;;;;;;;;;;;;;;;;;5031955;28;1647;-76
2021/12/16 14:52:22;;;;;;;;;;;;;;;;;;5016665;28;2044;-76
2021/12/16 14:54:55;;;;;;;;;;;;;;;;;;5030978;28;1658;-76
2021/12/16 14:57:24;;;;;;;;;;;;;;;;;;5016186;28;1571;-76
2021/12/16 14:59:49;;;;;;;;;;;;;;;;;;5024035;28;1583;-76
2021/12/16 15:02:16;;;;;;;;;;;;;;;;;;5022996;28;1569;-76
2021/12/16 15:04:41;;;;;;;;;;;;;;;;;;5031096;28;1647;-76
2021/12/16 15:07:09;;;;;;;;;;;;;;;;;;5018410;28;1574;-76
2021/12/16 15:09:38;;;;;;;;;;;;;;;;;;5035765;28;870;-76
2021/12/16 15:37:03;;;;;;;;;;;;;;;;;;5016202;28;1658;-77
2021/12/16 15:45:00;;;;;;;;;;;;;;;;;;5016565;28;697;-76
2021/12/16 15:47:25;;;;;;;;;;;;;;;;;;5017877;28;1692;-76
2021/12/16 15:49:51;;;;;;;;;;;;;;;;;;5033295;28;1453;-76
2021/12/16 15:52:16;;;;;;;;;;;;;;;;;;5025312;28;1967;-76
2021/12/16 15:54:49;;;;;;;;;;;;;;;;;;5034765;28;811;-76
2021/12/16 15:57:15;;;;;;;;;;;;;;;;;;5049147;28;855;-76
2021/12/16 15:59:44;;;;;;;;;;;;;;;;;;5033601;28;1590;-76
2021/12/16 16:02:09;;;;;;;;;;;;;;;;;;5027624;28;1440;-76
2021/12/16 16:04:35;;;;;;;;;;;;;;;;;;5015846;28;1580;-76
2021/12/16 16:07:07;;;;;;;;;;;;;;;;;;5015075;28;898;-76
2021/12/16 16:09:42;;;;;;;;;;;;;;;;;;5014653;28;1588;-76
2021/12/16 16:12:11;;;;;;;;;;;;;;;;;;5003412;28;1902;-76
2021/12/16 16:14:39;;;;;;;;;;;;;;;;;;5032081;28;1647;-76
2021/12/16 16:17:12;;;;;;;;;;;;;;;;;;5033346;28;1587;-76
2021/12/16 16:19:40;;;;;;;;;;;;;;;;;;5016867;28;1426;-76
2021/12/16 16:22:06;;;;;;;;;;;;;;;;;;5023721;28;1601;-76
2021/12/16 16:24:38;;;;;;;;;;;;;;;;;;5029712;28;1571;-76
2021/12/16 16:27:05;;;;;;;;;;;;;;;;;;5022277;28;1607;-76
2021/12/16 16:29:30;;;;;;;;;;;;;;;;;;5032581;28;1600;-76
2021/12/16 16:31:56;;;;;;;;;;;;;;;;;;5019367;28;1910;-76
2021/12/16 16:34:26;;;;;;;;;;;;;;;;;;5030665;28;1595;-76
2021/12/16 16:36:53;;;;;;;;;;;;;;;;;;5014115;28;1605;-76
2021/12/16 16:39:20;;;;;;;;;;;;;;;;;;5022889;28;1596;-76
2021/12/16 16:41:50;;;;;;;;;;;;;;;;;;5028506;28;1719;-76
2021/12/16 16:44:16;;;;;;;;;;;;;;;;;;5013605;28;1630;-76
2021/12/16 16:46:47;;;;;;;;;;;;;;;;;;5045184;28;1658;-76
2021/12/16 16:49:24;;;;;;;;;;;;;;;;;;5021657;28;1698;-76
2021/12/16 16:51:51;;;;;;;;;;;;;;;;;;5030036;28;1965;-76
2021/12/16 16:54:19;;;;;;;;;;;;;;;;;;5030404;28;1603;-76
2021/12/16 16:56:47;;;;;;;;;;;;;;;;;;5029340;28;1544;-76
2021/12/16 16:59:15;;;;;;;;;;;;;;;;;;5020830;28;1677;-76
2021/12/16 17:01:40;;;;;;;;;;;;;;;;;;5021815;28;1592;-76
2021/12/16 17:04:09;;;;;;;;;;;;;;;;;;5026843;28;1619;-76
2021/12/16 17:06:34;;;;;;;;;;;;;;;;;;5015183;28;1598;-76
2021/12/16 17:09:02;;;;;;;;;;;;;;;;;;5032181;28;1726;-76
2021/12/16 17:11:28;;;;;;;;;;;;;;;;;;5025696;28;1971;-76
2021/12/16 17:14:06;;;;;;;;;;;;;;;;;;5025068;28;1678;-76
2021/12/16 17:19:19;;;;;;;;;;;;;;;;;;5012422;28;1588;-76
2021/12/16 17:21:48;;;;;;;;;;;;;;;;;;5013697;28;1497;-76
2021/12/16 17:24:18;;;;;;;;;;;;;;;;;;5013487;28;1603;-76
2021/12/16 17:26:45;;;;;;;;;;;;;;;;;;5013946;28;1485;-76
2021/12/16 17:29:13;;;;;;;;;;;;;;;;;;5030498;28;1570;-76
2021/12/16 17:31:41;;;;;;;;;;;;;;;;;;5027625;28;1906;-76
2021/12/16 17:34:13;;;;;;;;;;;;;;;;;;5014814;28;1608;-76
2021/12/16 17:36:45;;;;;;;;;;;;;;;;;;5033021;28;800;-76
2021/12/16 17:39:12;;;;;;;;;;;;;;;;;;5027793;28;1583;-75
2021/12/16 17:41:38;;;;;;;;;;;;;;;;;;5031188;28;1617;-75
2021/12/16 17:44:08;;;;;;;;;;;;;;;;;;5028024;28;1627;-76
2021/12/16 17:46:33;;;;;;;;;;;;;;;;;;5029628;28;1889;-75
2021/12/16 17:48:58;;;;;;;;;;;;;;;;;;5031111;28;1663;-75
2021/12/16 17:51:25;;;;;;;;;;;;;;;;;;5013754;28;1957;-76
2021/12/16 17:53:51;;;;;;;;;;;;;;;;;;5031539;28;1774;-76
2021/12/16 17:56:17;;;;;;;;;;;;;;;;;;5013135;28;1096;-76
2021/12/16 17:58:43;;;;;;;;;;;;;;;;;;5013026;28;1250;-76
2021/12/16 18:01:10;;;;;;;;;;;;;;;;;;5013034;28;2134;-76
2021/12/16 18:03:37;;;;;;;;;;;;;;;;;;5020304;28;1489;-76
2021/12/16 18:06:04;;;;;;;;;;;;;;;;;;5029265;28;1683;-76
2021/12/16 18:08:36;;;;;;;;;;;;;;;;;;5029118;28;1697;-76
2021/12/16 18:11:24;;;;;;;;;;;;;;;;;;5032714;28;1902;-76
2021/12/16 18:13:52;;;;;;;;;;;;;;;;;;5028353;28;1618;-76
2021/12/16 18:16:18;;;;;;;;;;;;;;;;;;5032660;28;1528;-76
2021/12/16 18:18:43;;;;;;;;;;;;;;;;;;5030727;28;1603;-76
2021/12/16 18:21:09;;;;;;;;;;;;;;;;;;5025526;28;1435;-76
2021/12/16 18:23:34;;;;;;;;;;;;;;;;;;5025725;28;1576;-76
2021/12/16 18:26:00;;;;;;;;;;;;;;;;;;5022241;28;1676;-76
2021/12/16 18:28:32;;;;;;;;;;;;;;;;;;5015798;28;1768;-76
2021/12/16 18:31:15;;;;;;;;;;;;;;;;;;5012452;28;1967;-76
2021/12/16 18:33:43;;;;;;;;;;;;;;;;;;5028518;28;1842;-76
2021/12/16 18:36:09;;;;;;;;;;;;;;;;;;5043543;28;1653;-76
2021/12/16 18:38:51;;;;;;;;;;;;;;;;;;5031455;28;1610;-76
2021/12/16 18:41:18;;;;;;;;;;;;;;;;;;5062807;28;1624;-76
2021/12/16 18:43:44;;;;;;;;;;;;;;;;;;5013629;28;1611;-76
2021/12/16 18:46:10;;;;;;;;;;;;;;;;;;5016351;28;1626;-76
2021/12/16 18:48:51;;;;;;;;;;;;;;;;;;5041698;28;1584;-76
2021/12/16 18:51:25;;;;;;;;;;;;;;;;;;5029661;28;1960;-76
2021/12/16 18:56:38;;;;;;;;;;;;;;;;;;5055405;28;1601;-76
2021/12/16 18:59:06;;;;;;;;;;;;;;;;;;5026048;28;1564;-76
2021/12/16 19:01:35;;;;;;;;;;;;;;;;;;5034449;28;1545;-76
2021/12/16 19:04:00;;;;;;;;;;;;;;;;;;5032535;28;1758;-76
2021/12/16 19:06:29;;;;;;;;;;;;;;;;;;5030300;28;1627;-76
2021/12/16 19:08:55;;;;;;;;;;;;;;;;;;5024342;28;1651;-76
2021/12/16 19:11:21;;;;;;;;;;;;;;;;;;5027088;28;1955;-76
2021/12/16 19:13:47;;;;;;;;;;;;;;;;;;5055132;28;1670;-76
2021/12/16 19:16:16;;;;;;;;;;;;;;;;;;5025637;28;1759;-76
2021/12/16 19:18:43;;;;;;;;;;;;;;;;;;5023369;28;1629;-75
2021/12/16 19:21:11;;;;;;;;;;;;;;;;;;5025257;28;1797;-77
2021/12/16 19:23:36;;;;;;;;;;;;;;;;;;5018847;28;1638;-76
2021/12/16 19:26:02;;;;;;;;;;;;;;;;;;5028967;28;1674;-76
2021/12/16 19:28:27;;;;;;;;;;;;;;;;;;5026266;28;1925;-76
2021/12/16 19:30:53;;;;;;;;;;;;;;;;;;5031500;28;1971;-76
2021/12/16 19:33:19;;;;;;;;;;;;;;;;;;5026947;28;2214;-76
2021/12/16 19:35:44;;;;;;;;;;;;;;;;;;5068360;28;1699;-77
2021/12/16 19:38:11;;;;;;;;;;;;;;;;;;5034273;28;1044;-76
2021/12/16 19:40:39;;;;;;;;;;;;;;;;;;5034940;28;855;-76
2021/12/16 19:43:07;;;;;;;;;;;;;;;;;;5029384;28;1923;-76
2021/12/16 19:45:34;;;;;;;;;;;;;;;;;;5034856;28;1468;-77
2021/12/16 19:47:59;;;;;;;;;;;;;;;;;;5016834;28;1588;-77
2021/12/16 19:50:28;;;;;;;;;;;;;;;;;;5043498;28;1379;-78
2021/12/16 19:52:53;;;;;;;;;;;;;;;;;;5033618;28;1961;-76
2021/12/16 19:55:21;;;;;;;;;;;;;;;;;;5030968;28;1726;-76
2021/12/16 19:57:48;;;;;;;;;;;;;;;;;;5022917;28;1509;-76
2021/12/16 20:00:19;;;;;;;;;;;;;;;;;;5031669;28;1663;-76
2021/12/16 20:02:44;;;;;;;;;;;;;;;;;;5033376;28;1346;-78
2021/12/16 20:05:10;;;;;;;;;;;;;;;;;;5031716;28;1642;-78
2021/12/16 20:07:37;;;;;;;;;;;;;;;;;;5028546;28;1428;-77
2021/12/16 20:10:04;;;;;;;;;;;;;;;;;;5021125;28;1914;-76
2021/12/16 20:12:30;;;;;;;;;;;;;;;;;;5026341;28;1958;-77
2021/12/16 20:14:56;;;;;;;;;;;;;;;;;;5043046;28;1866;-77
2021/12/16 20:17:24;;;;;;;;;;;;;;;;;;5028077;28;1708;-79
2021/12/16 20:19:51;;;;;;;;;;;;;;;;;;5029138;28;1595;-80
2021/12/16 20:22:18;;;;;;;;;;;;;;;;;;5020430;28;1962;-80
2021/12/16 20:24:44;;;;;;;;;;;;;;;;;;5029963;28;1527;-80
2021/12/16 20:27:16;;;;;;;;;;;;;;;;;;5032285;28;1838;-80
2021/12/16 20:29:51;;;;;;;;;;;;;;;;;;5025018;28;1931;-80
2021/12/16 20:32:20;;;;;;;;;;;;;;;;;;5025992;28;1902;-79
2021/12/16 20:34:52;;;;;;;;;;;;;;;;;;5030070;28;1725;-80
2021/12/16 20:37:18;;;;;;;;;;;;;;;;;;5031163;28;1729;-79
2021/12/16 20:39:45;;;;;;;;;;;;;;;;;;5025687;28;1877;-80
2021/12/16 20:42:15;;;;;;;;;;;;;;;;;;5029105;28;1568;-80
2021/12/16 20:44:43;;;;;;;;;;;;;;;;;;5020660;28;1910;-80
2021/12/16 20:47:09;;;;;;;;;;;;;;;;;;5033897;28;1501;-79
2021/12/16 20:49:36;;;;;;;;;;;;;;;;;;5059642;28;1672;-80
2021/12/16 20:52:03;;;;;;;;;;;;;;;;;;5030187;28;1906;-79
2021/12/16 20:54:34;;;;;;;;;;;;;;;;;;5030665;28;1475;-80
2021/12/16 20:56:59;;;;;;;;;;;;;;;;;;5026259;28;1604;-79
2021/12/16 20:59:26;;;;;;;;;;;;;;;;;;5017356;28;1559;-80
2021/12/16 21:02:02;;;;;;;;;;;;;;;;;;5030767;28;1685;-80
2021/12/16 21:04:28;;;;;;;;;;;;;;;;;;5032335;28;1534;-80
2021/12/16 21:06:54;;;;;;;;;;;;;;;;;;5029921;28;1596;-80
2021/12/16 21:09:21;;;;;;;;;;;;;;;;;;5032542;28;2173;-80
2021/12/16 21:11:46;;;;;;;;;;;;;;;;;;5025267;28;1969;-80
2021/12/16 21:14:11;;;;;;;;;;;;;;;;;;5017328;28;1685;-79
2021/12/16 21:16:36;;;;;;;;;;;;;;;;;;5029634;28;1588;-80